Time;durP1;ratioP1;P1;durP2;ratioP2;P2;SDS_P1;SDS_P2;PMS_P1;PMS_P2;Temp;Humidity;BMP_temperature;BMP_pressure;BME280_temperature;BME280_humidity;BME280_pressure;Samples;Min_cycle;Max_cycle;Signal;HPM_P1;HPM_P2
2021/12/11 00:03:15;;;;;;;42.15;17.33;;;;;;;1.43;100.00;98477.94;8223426;28;20515;-81
2021/12/11 00:07:19;;;;;;;45.33;17.20;;;;;;;1.51;100.00;98478.47;8230585;28;20097;-81
2021/12/11 00:11:31;;;;;;;39.30;15.68;;;;;;;1.55;100.00;98489.75;8222004;28;20128;-81
2021/12/11 00:15:36;;;;;;;44.75;17.23;;;;;;;1.57;100.00;98498.47;8200129;28;20050;-81
2021/12/11 00:19:39;;;;;;;50.08;16.83;;;;;;;1.57;100.00;98498.47;8230737;28;20045;-81
2021/12/11 00:23:51;;;;;;;40.88;16.33;;;;;;;1.58;100.00;98508.31;8224310;28;20042;-80
2021/12/11 00:27:59;;;;;;;33.90;12.27;;;;;;;1.46;100.00;98523.63;8197564;28;20043;-81
2021/12/11 00:32:02;;;;;;;41.25;15.35;;;;;;;1.49;100.00;98525.94;8226558;28;20046;-80
2021/12/11 00:36:12;;;;;;;43.13;16.80;;;;;;;1.51;100.00;98534.66;8207213;28;20114;-80
2021/12/11 00:40:21;;;;;;;40.22;15.98;;;;;;;1.47;100.00;98544.31;8215532;28;20456;-80
2021/12/11 00:44:42;;;;;;;47.28;17.08;;;;;;;1.51;100.00;98559.91;8205405;28;20035;-80
2021/12/11 00:48:43;;;;;;;37.67;16.10;;;;;;;1.55;100.00;98566.59;8232154;28;20047;-80
2021/12/11 00:52:47;;;;;;;36.65;15.65;;;;;;;1.63;100.00;98578.22;8225608;28;20046;-81
2021/12/11 00:56:49;;;;;;;35.42;15.60;;;;;;;1.65;100.00;98582.38;8215148;28;20046;-80
2021/12/11 01:01:16;;;;;;;40.25;16.30;;;;;;;1.65;100.00;98593.22;8222084;28;20081;-81
2021/12/11 01:05:17;;;;;;;42.35;16.33;;;;;;;1.65;100.00;98620.38;8210031;28;20050;-81
2021/12/11 01:09:26;;;;;;;36.20;14.57;;;;;;;1.69;100.00;98620.78;8204897;28;20047;-81
2021/12/11 01:13:33;;;;;;;33.45;15.52;;;;;;;1.69;100.00;98627.03;8232027;28;20533;-80
2021/12/11 01:17:47;;;;;;;38.22;15.48;;;;;;;1.71;100.00;98637.69;8214260;28;20054;-80
2021/12/11 01:22:00;;;;;;;38.30;16.35;;;;;;;1.73;100.00;98644.56;8231786;28;20447;-80
2021/12/11 01:26:02;;;;;;;;;;;;;;;1.76;100.00;98656.88;8228574;28;20054;-80
2021/12/11 01:30:06;;;;;;;40.72;16.05;;;;;;;1.76;100.00;98662.31;8217778;28;20617;-80
2021/12/11 01:34:07;;;;;;;36.65;15.18;;;;;;;1.74;100.00;98676.09;8215336;28;20047;-79
2021/12/11 01:38:12;;;;;;;41.10;17.30;;;;;;;1.80;100.00;98685.25;8235903;28;20800;-79
2021/12/11 01:42:22;;;;;;;39.78;15.80;;;;;;;1.84;100.00;98689.16;8213970;28;20061;-80
2021/12/11 01:46:25;;;;;;;37.92;16.70;;;;;;;1.91;100.00;98713.59;8207242;28;20050;-79
2021/12/11 01:50:31;;;;;;;;;;;;;;;1.90;100.00;98725.47;8218986;28;20078;-79
2021/12/11 01:54:37;;;;;;;35.53;16.70;;;;;;;1.90;100.00;98730.91;8223564;28;19942;-79
2021/12/11 01:58:57;;;;;;;38.22;16.63;;;;;;;1.94;100.00;98732.16;8221424;28;20043;-79
2021/12/11 02:03:00;;;;;;;37.42;15.38;;;;;;;1.96;100.00;98741.75;8190574;28;20130;-79
2021/12/11 02:07:07;;;;;;;36.63;17.08;;;;;;;1.97;100.00;98756.19;8214982;28;20043;-80
2021/12/11 02:11:16;;;;;;;40.00;17.65;;;;;;;1.95;100.00;98766.41;8212005;28;20110;-81
2021/12/11 02:15:30;;;;;;;38.17;16.00;;;;;;;1.97;100.00;98770.59;8221640;28;20105;-80
2021/12/11 02:19:36;;;;;;;35.92;15.57;;;;;;;1.98;100.00;98782.28;8208529;28;20053;-79
2021/12/11 02:23:37;;;;;;;39.70;17.13;;;;;;;2.01;100.00;98787.28;8232393;28;20047;-78
2021/12/11 02:27:46;;;;;;;39.45;17.27;;;;;;;2.00;100.00;98794.59;8228359;28;20090;-80
2021/12/11 02:32:13;;;;;;;37.70;16.88;;;;;;;2.03;100.00;98810.47;8207410;28;20152;-80
2021/12/11 02:36:27;;;;;;;39.80;16.30;;;;;;;2.07;100.00;98812.75;8230094;28;20124;-79
2021/12/11 02:40:34;;;;;;;34.95;16.08;;;;;;;2.01;100.00;98814.44;8228201;28;20058;-79
2021/12/11 02:44:39;;;;;;;37.03;16.17;;;;;;;2.00;100.00;98829.09;8220500;28;20061;-79
2021/12/11 02:48:47;;;;;;;38.90;17.17;;;;;;;2.00;100.00;98837.25;8225496;28;20039;-80
2021/12/11 02:53:00;;;;;;;36.97;16.58;;;;;;;1.97;100.00;98851.28;8231562;28;20086;-79
2021/12/11 02:57:07;;;;;;;38.05;15.98;;;;;;;1.98;100.00;98861.06;8200878;28;20047;-79
2021/12/11 03:01:23;;;;;;;39.33;16.58;;;;;;;1.99;100.00;98862.72;8230531;28;20094;-79
2021/12/11 03:05:34;;;;;;;35.50;15.98;;;;;;;2.01;100.00;98869.63;8207550;28;20109;-79
2021/12/11 03:09:38;;;;;;;39.58;16.88;;;;;;;1.95;100.00;98875.09;8225984;28;20415;-79
2021/12/11 03:13:40;;;;;;;39.17;16.33;;;;;;;1.93;100.00;98885.34;8234420;28;20039;-79
2021/12/11 03:17:41;;;;;;;39.80;18.13;;;;;;;1.98;100.00;98890.97;8226166;28;20047;-80
2021/12/11 03:21:42;;;;;;;40.42;16.50;;;;;;;2.00;100.00;98905.19;8219537;28;20448;-79
2021/12/11 03:25:45;;;;;;;38.20;17.23;;;;;;;2.01;100.00;98915.81;8222844;28;20418;-79
2021/12/11 03:29:46;;;;;;;;;;;;;;;2.02;100.00;98924.78;8216286;28;20047;-79
2021/12/11 03:33:57;;;;;;;37.57;15.67;;;;;;;1.97;100.00;98932.78;8221478;28;20021;-79
2021/12/11 03:37:58;;;;;;;38.17;16.95;;;;;;;1.98;100.00;98937.16;8228641;28;20500;-78
2021/12/11 03:42:02;;;;;;;40.25;17.30;;;;;;;1.98;100.00;98946.13;8208404;28;20051;-79
2021/12/11 03:46:07;;;;;;;40.38;16.83;;;;;;;1.94;100.00;98949.50;8192336;28;20050;-79
2021/12/11 03:50:12;;;;;;;39.13;16.58;;;;;;;1.96;100.00;98963.69;8219690;28;20039;-78
2021/12/11 03:54:16;;;;;;;36.22;16.77;;;;;;;1.97;100.00;98960.78;8220527;28;20046;-79
2021/12/11 03:58:18;;;;;;;35.47;17.27;;;;;;;2.00;100.00;98970.38;8220735;28;20073;-79
2021/12/11 04:02:25;;;;;;;32.63;16.20;;;;;;;2.04;100.00;98979.78;8207157;28;20492;-79
2021/12/11 04:06:26;;;;;;;36.17;16.27;;;;;;;2.09;100.00;98988.13;8206823;28;20661;-78
2021/12/11 04:10:27;;;;;;;34.85;15.70;;;;;;;2.10;100.00;98997.09;8229847;28;20053;-79
2021/12/11 04:14:31;;;;;;;33.35;16.20;;;;;;;2.13;100.00;99005.66;8225377;28;20122;-79
2021/12/11 04:18:31;;;;;;;37.92;17.15;;;;;;;2.14;100.00;99009.19;8213985;28;20042;-78
2021/12/11 04:22:32;;;;;;;36.85;17.02;;;;;;;2.07;100.00;99011.94;8203995;28;20054;-80
2021/12/11 04:26:33;;;;;;;36.38;16.17;;;;;;;2.05;100.00;99020.34;8232245;28;20042;-79
2021/12/11 04:30:34;;;;;;;37.53;16.95;;;;;;;2.05;100.00;99024.91;8213014;28;20055;-79
2021/12/11 04:34:35;;;;;;;31.90;14.90;;;;;;;2.01;100.00;99037.25;8227066;28;20092;-80
2021/12/11 04:38:37;;;;;;;33.13;16.20;;;;;;;2.05;100.00;99041.22;8218643;28;20133;-78
2021/12/11 04:46:45;;;;;;;35.05;17.05;;;;;;;1.99;100.00;99055.66;8214234;28;20298;-78
2021/12/11 04:50:58;;;;;;;37.67;16.83;;;;;;;1.97;100.00;99074.06;8222474;28;20129;-79
2021/12/11 05:04:18;;;;;;;33.20;15.13;;;;;;;2.00;100.00;99090.78;8219411;28;20039;-79
2021/12/11 05:12:34;;;;;;;40.58;16.17;;;;;;;2.00;100.00;99103.53;8208099;28;20064;-79
2021/12/11 05:16:34;;;;;;;33.67;16.23;;;;;;;2.05;100.00;99118.16;8225917;28;20113;-79
2021/12/11 05:20:37;;;;;;;36.10;16.08;;;;;;;2.03;100.00;99128.41;8218766;28;20043;-79
2021/12/11 05:24:44;;;;;;;35.72;16.83;;;;;;;2.07;100.00;99136.13;8227572;28;20102;-80
2021/12/11 05:28:45;;;;;;;37.53;16.35;;;;;;;2.10;100.00;99150.13;8210436;28;20039;-78
2021/12/11 05:32:46;;;;;;;36.17;16.02;;;;;;;2.14;100.00;99159.53;8222544;28;20035;-80
2021/12/11 05:36:47;;;;;;;37.58;15.57;;;;;;;2.18;100.00;99166.22;8205378;28;20038;-79
2021/12/11 05:40:56;;;;;;;35.85;15.27;;;;;;;2.18;100.00;99178.97;8210955;28;20047;-79
2021/12/11 05:44:56;;;;;;;35.60;16.48;;;;;;;2.17;100.00;99180.88;8224491;28;20484;-79
2021/12/11 05:48:57;;;;;;;38.13;15.75;;;;;;;2.24;100.00;99191.72;8227644;28;20054;-80
2021/12/11 05:53:02;;;;;;;35.47;16.55;;;;;;;2.25;100.00;99191.50;8205575;28;20113;-79
2021/12/11 05:57:07;;;;;;;36.28;16.60;;;;;;;2.25;100.00;99196.09;8227306;28;20050;-79
2021/12/11 06:01:08;;;;;;;39.33;17.00;;;;;;;2.24;100.00;99206.16;8195009;28;20416;-79
2021/12/11 06:05:08;;;;;;;36.47;16.70;;;;;;;2.23;100.00;99209.94;8227489;28;20057;-79
2021/12/11 06:09:11;;;;;;;35.10;16.27;;;;;;;2.24;100.00;99225.19;8222638;28;20047;-80
2021/12/11 06:13:12;;;;;;;37.15;15.80;;;;;;;2.26;100.00;99224.94;8226428;28;20077;-80
2021/12/11 06:17:17;;;;;;;40.25;17.13;;;;;;;2.27;100.00;99227.47;8213725;28;20476;-79
2021/12/11 06:21:19;;;;;;;37.92;16.30;;;;;;;2.26;100.00;99231.25;8191066;28;20428;-79
2021/12/11 06:25:26;;;;;;;35.42;16.33;;;;;;;2.27;100.00;99256.56;8225560;28;20047;-79
2021/12/11 06:29:27;;;;;;;33.38;16.42;;;;;;;2.28;100.00;99258.22;8205858;28;20035;-78
2021/12/11 06:33:29;;;;;;;42.25;17.98;;;;;;;2.33;100.00;99279.34;8214574;28;20479;-79
2021/12/11 06:37:31;;;;;;;33.93;15.43;;;;;;;2.33;100.00;99282.06;8191798;28;20067;-78
2021/12/11 06:41:36;;;;;;;36.50;16.05;;;;;;;2.33;100.00;99295.66;8213762;28;20051;-79
2021/12/11 06:45:38;;;;;;;33.70;16.05;;;;;;;2.34;100.00;99309.03;8229899;28;20054;-79
2021/12/11 06:49:39;;;;;;;34.83;16.40;;;;;;;2.35;100.00;99321.59;8210050;28;20127;-79
2021/12/11 06:53:44;;;;;;;36.85;16.70;;;;;;;2.34;100.00;99322.63;8201108;28;20053;-79
2021/12/11 06:57:44;;;;;;;36.65;17.75;;;;;;;2.35;100.00;99320.75;8212521;28;20047;-80
2021/12/11 07:01:45;;;;;;;35.67;16.08;;;;;;;2.33;100.00;99336.44;8209242;28;20055;-80
2021/12/11 07:05:45;;;;;;;35.92;17.45;;;;;;;2.36;100.00;99341.47;8225595;28;20066;-80
2021/12/11 07:09:46;;;;;;;35.90;16.88;;;;;;;2.38;100.00;99367.41;8221324;28;20074;-80
2021/12/11 07:13:47;;;;;;;32.22;16.30;;;;;;;2.40;100.00;99370.72;8201587;28;20500;-80
2021/12/11 07:17:47;;;;;;;38.67;17.13;;;;;;;2.44;100.00;99376.59;8195069;28;20035;-80
2021/12/11 07:21:50;;;;;;;36.67;18.13;;;;;;;2.44;100.00;99396.50;8226180;28;20051;-79
2021/12/11 07:25:59;;;;;;;35.17;17.23;;;;;;;2.46;100.00;99401.69;8218725;28;20054;-78
2021/12/11 07:29:59;;;;;;;36.22;18.25;;;;;;;2.52;100.00;99425.34;8229389;28;20090;-80
2021/12/11 07:34:01;;;;;;;35.83;17.52;;;;;;;2.49;100.00;99437.47;8222415;28;20106;-80
2021/12/11 07:38:02;;;;;;;36.38;17.67;;;;;;;2.43;100.00;99451.06;8217265;28;20036;-80
2021/12/11 07:42:03;;;;;;;41.08;18.23;;;;;;;2.42;100.00;99454.84;8222460;28;20145;-79
2021/12/11 07:46:13;;;;;;;39.65;19.40;;;;;;;2.52;100.00;99468.88;8203733;28;20500;-79
2021/12/11 07:50:14;;;;;;;42.33;20.80;;;;;;;2.49;100.00;99469.28;8220948;28;20058;-80
2021/12/11 07:54:18;;;;;;;37.67;19.15;;;;;;;2.49;100.00;99485.59;8225281;28;20042;-80
2021/12/11 07:58:20;;;;;;;38.53;17.70;;;;;;;2.57;100.00;99490.84;8191355;28;20057;-82
2021/12/11 08:02:20;;;;;;;37.85;18.20;;;;;;;2.60;100.00;99497.78;8224577;28;20527;-79
2021/12/11 08:06:20;;;;;;;41.88;19.67;;;;;;;2.63;100.00;99514.50;8219503;28;20043;-79
2021/12/11 08:10:23;;;;;;;36.53;18.20;;;;;;;2.64;100.00;99527.06;8214208;28;20070;-81
2021/12/11 08:14:25;;;;;;;36.50;17.37;;;;;;;2.73;100.00;99541.31;8213762;28;20599;-82
2021/12/11 08:18:26;;;;;;;35.97;18.20;;;;;;;2.83;100.00;99541.78;8212242;28;20043;-79
2021/12/11 08:22:27;;;;;;;33.88;18.55;;;;;;;2.90;100.00;99542.63;8198796;28;20035;-82
2021/12/11 08:26:28;;;;;;;42.50;19.15;;;;;;;2.95;100.00;99555.63;8218693;28;20142;-80
2021/12/11 08:30:31;;;;;;;43.90;20.27;;;;;;;2.93;100.00;99560.41;8215887;28;20468;-81
2021/12/11 08:34:31;;;;;;;39.88;19.75;;;;;;;2.92;100.00;99573.19;8205546;28;20054;-82
2021/12/11 08:38:32;;;;;;;38.55;20.40;;;;;;;2.93;100.00;99571.31;8195791;28;20471;-81
2021/12/11 08:42:33;;;;;;;38.95;19.98;;;;;;;3.02;100.00;99582.84;8202818;28;20050;-80
2021/12/11 08:46:39;;;;;;;38.97;19.05;;;;;;;3.08;100.00;99591.00;8211465;28;20038;-78
2021/12/11 08:50:40;;;;;;;37.30;19.65;;;;;;;3.16;100.00;99600.88;8193533;28;20039;-79
2021/12/11 08:54:40;;;;;;;40.92;20.13;;;;;;;3.18;100.00;99609.66;8211266;28;20053;-80
2021/12/11 08:58:44;;;;;;;41.83;20.15;;;;;;;3.27;100.00;99618.47;8212267;28;20034;-79
2021/12/11 09:02:56;;;;;;;42.00;19.20;;;;;;;3.31;100.00;99625.22;8225820;28;20042;-80
2021/12/11 09:07:01;;;;;;;37.28;18.52;;;;;;;3.38;100.00;99631.50;8212999;28;20435;-80
2021/12/11 09:11:11;;;;;;;32.72;17.80;;;;;;;3.41;100.00;99642.81;8214736;28;20035;-79
2021/12/11 09:15:23;;;;;;;37.53;17.80;;;;;;;3.46;100.00;99653.09;8196258;28;20043;-79
2021/12/11 09:19:35;;;;;;;26.30;13.03;;;;;;;3.39;100.00;99658.53;8195124;28;20695;-79
2021/12/11 09:24:03;;;;;;;30.02;16.23;;;;;;;3.19;100.00;99683.00;8222396;28;20043;-78
2021/12/11 09:28:10;;;;;;;37.67;17.33;;;;;;;2.97;100.00;99685.03;8220829;28;20491;-79
2021/12/11 09:32:37;;;;;;;34.45;17.27;;;;;;;2.86;100.00;99679.31;8212381;28;20515;-79
2021/12/11 09:36:44;;;;;;;38.85;18.27;;;;;;;2.77;100.00;99694.97;8219899;28;20373;-79
2021/12/11 09:40:44;;;;;;;38.72;17.67;;;;;;;2.83;100.00;99704.22;8206198;28;20082;-80
2021/12/11 09:44:58;;;;;;;37.83;18.55;;;;;;;2.92;100.00;99705.72;8216839;28;20092;-80
2021/12/11 09:49:04;;;;;;;36.42;18.25;;;;;;;2.93;100.00;99710.94;8219304;28;20062;-79
2021/12/11 09:53:04;;;;;;;37.40;18.05;;;;;;;2.87;100.00;99706.31;8229891;28;20125;-79
2021/12/11 09:57:09;;;;;;;40.20;19.92;;;;;;;2.88;100.00;99707.16;8206981;28;20043;-80
2021/12/11 10:01:17;;;;;;;40.80;19.55;;;;;;;2.95;100.00;99717.03;8229117;28;20074;-78
2021/12/11 10:05:33;;;;;;;46.40;20.48;;;;;;;2.97;100.00;99717.69;8217080;28;20058;-79
2021/12/11 10:09:42;;;;;;;41.55;18.65;;;;;;;3.10;99.90;99733.22;8229103;28;20047;-80
2021/12/11 10:13:57;;;;;;;41.53;20.23;;;;;;;3.35;99.42;99735.41;8220400;28;20121;-81
2021/12/11 10:17:59;;;;;;;39.13;17.83;;;;;;;3.51;98.84;99739.63;8230745;28;20035;-80
2021/12/11 10:22:16;;;;;;;39.40;18.90;;;;;;;3.73;98.71;99738.44;8223851;28;20579;-79
2021/12/11 10:26:19;;;;;;;37.05;18.67;;;;;;;3.86;98.65;99738.44;8205743;28;20075;-79
2021/12/11 10:30:24;;;;;;;34.45;17.90;;;;;;;3.96;96.77;99745.41;8234625;28;20049;-79
2021/12/11 10:34:29;;;;;;;34.05;17.05;;;;;;;4.00;95.52;99750.19;8223462;28;20645;-80
2021/12/11 10:38:32;;;;;;;32.08;16.35;;;;;;;4.18;96.30;99755.03;8214624;28;20094;-79
2021/12/11 10:42:33;;;;;;;37.17;17.00;;;;;;;4.15;94.10;99757.34;8210537;28;20149;-78
2021/12/11 10:46:39;;;;;;;37.45;18.45;;;;;;;3.96;94.78;99759.03;8196594;28;20520;-79
2021/12/11 10:50:48;;;;;;;31.92;16.90;;;;;;;3.86;95.31;99762.13;8197119;28;20038;-79
2021/12/11 10:54:51;;;;;;;31.02;16.00;;;;;;;3.91;95.03;99773.25;8228697;28;20042;-81
2021/12/11 10:59:04;;;;;;;30.75;16.63;;;;;;;4.03;95.42;99782.50;8210291;28;20500;-80
2021/12/11 11:03:06;;;;;;;27.55;14.75;;;;;;;4.20;94.87;99777.50;8229236;28;20043;-79
2021/12/11 11:07:08;;;;;;;27.85;14.80;;;;;;;4.20;93.96;99782.13;8214239;28;20051;-79
2021/12/11 11:11:12;;;;;;;25.13;14.98;;;;;;;4.29;94.92;99783.59;8226199;28;20058;-80
2021/12/11 11:15:14;;;;;;;29.63;14.82;;;;;;;4.29;94.44;99783.59;8221844;28;20090;-77
2021/12/11 11:19:14;;;;;;;32.95;14.65;;;;;;;4.45;94.24;99796.78;8206728;28;20057;-78
2021/12/11 11:23:15;;;;;;;22.58;13.23;;;;;;;4.71;91.41;99795.09;8229118;28;20393;-78
2021/12/11 11:27:18;;;;;;;27.30;13.63;;;;;;;5.08;89.00;99800.91;8221208;28;20049;-78
2021/12/11 11:31:22;;;;;;;28.25;14.00;;;;;;;5.52;88.46;99802.00;8235973;28;20042;-79
2021/12/11 11:35:30;;;;;;;25.63;14.05;;;;;;;5.71;87.81;99803.78;8208890;28;20110;-79
2021/12/11 11:39:31;;;;;;;26.17;15.02;;;;;;;5.55;87.92;99815.25;8231716;28;20038;-78
2021/12/11 11:43:32;;;;;;;26.88;14.27;;;;;;;5.54;88.01;99817.13;8223514;28;20622;-78
2021/12/11 11:47:33;;;;;;;23.75;13.68;;;;;;;5.65;85.96;99823.78;8226855;28;20416;-79
2021/12/11 11:51:40;;;;;;;22.85;12.77;;;;;;;6.14;85.36;99828.63;8221752;28;20053;-78
2021/12/11 11:55:46;;;;;;;22.02;12.40;;;;;;;6.72;81.75;99819.34;8219423;28;20455;-78
2021/12/11 11:59:49;;;;;;;24.00;13.25;;;;;;;7.37;78.99;99827.06;8205248;28;20866;-80
2021/12/11 12:03:50;;;;;;;22.30;14.05;;;;;;;7.90;77.61;99829.16;8220439;28;20065;-79
2021/12/11 12:07:51;;;;;;;23.45;12.13;;;;;;;8.53;77.28;99833.31;8201679;28;20105;-77
2021/12/11 12:11:53;;;;;;;22.63;12.13;;;;;;;8.15;72.74;99830.91;8210954;28;20051;-80
2021/12/11 12:15:58;;;;;;;16.55;9.88;;;;;;;7.78;71.30;99827.44;8222462;28;20054;-77
2021/12/11 12:19:59;;;;;;;18.52;10.80;;;;;;;7.92;71.56;99839.91;8219828;28;20415;-80
2021/12/11 12:24:00;;;;;;;18.90;11.52;;;;;;;8.46;71.03;99843.59;8227652;28;20047;-78
2021/12/11 12:28:00;;;;;;;21.35;11.90;;;;;;;9.24;70.81;99847.94;8222256;28;20182;-77
2021/12/11 12:32:12;;;;;;;19.38;12.77;;;;;;;9.62;70.65;99856.75;8217013;28;20523;-78
2021/12/11 12:36:14;;;;;;;19.23;11.35;;;;;;;9.22;69.55;99849.25;8215532;28;20412;-79
2021/12/11 12:40:28;;;;;;;20.20;11.10;;;;;;;8.58;70.10;99858.19;8221798;28;20046;-78
2021/12/11 12:44:30;;;;;;;19.98;11.73;;;;;;;8.12;71.75;99856.09;8225307;28;20043;-77
2021/12/11 12:48:31;;;;;;;17.47;9.83;;;;;;;8.05;72.05;99864.41;8205839;28;20046;-78
2021/12/11 12:52:35;;;;;;;18.30;9.65;;;;;;;7.87;71.72;99861.72;8224824;28;20431;-77
2021/12/11 12:56:46;;;;;;;17.17;9.90;;;;;;;7.17;70.81;99875.78;8182979;28;20038;-79
2021/12/11 13:00:55;;;;;;;16.60;9.50;;;;;;;6.80;72.07;99876.53;8225498;28;20086;-78
2021/12/11 13:05:06;;;;;;;16.17;9.43;;;;;;;6.79;72.81;99883.09;8223048;28;20452;-78
2021/12/11 13:09:16;;;;;;;18.40;9.90;;;;;;;6.65;72.68;99892.47;8218043;28;20062;-78
2021/12/11 13:13:29;;;;;;;20.80;9.93;;;;;;;6.35;73.43;99901.31;8207346;28;20062;-79
2021/12/11 13:17:37;;;;;;;22.58;11.90;;;;;;;6.07;75.10;99898.13;8214962;28;20038;-79
2021/12/11 13:21:43;;;;;;;18.77;9.98;;;;;;;5.92;76.17;99896.47;8222030;28;20047;-78
2021/12/11 13:26:05;;;;;;;21.13;9.85;;;;;;;5.67;77.92;99912.75;8214401;28;20050;-80
2021/12/11 13:30:09;;;;;;;20.13;10.50;;;;;;;5.54;78.97;99921.00;8207590;28;20051;-78
2021/12/11 13:34:10;;;;;;;21.00;10.27;;;;;;;5.59;79.15;99923.94;8214446;28;20047;-78
2021/12/11 13:38:17;;;;;;;17.50;9.35;;;;;;;5.63;79.00;99924.34;8222120;28;20408;-78
2021/12/11 13:42:24;;;;;;;22.10;10.70;;;;;;;5.60;78.81;99941.19;8201678;28;20045;-78
2021/12/11 13:46:25;;;;;;;20.13;10.48;;;;;;;5.52;79.71;99944.97;8200343;28;20138;-78
2021/12/11 13:50:43;;;;;;;;;;;;;;;5.30;79.83;99951.75;8196830;28;20051;-77
2021/12/11 13:54:44;;;;;;;19.60;9.40;;;;;;;5.20;80.31;99968.56;8213150;28;19918;-78
2021/12/11 13:58:46;;;;;;;20.17;9.85;;;;;;;5.11;81.26;99972.53;8217371;28;20035;-78
2021/12/11 14:02:49;;;;;;;22.97;9.60;;;;;;;5.01;82.32;99992.94;8214425;28;20070;-79
2021/12/11 14:07:03;;;;;;;19.60;8.15;;;;;;;4.89;83.07;99989.13;8195684;28;20034;-77
2021/12/11 14:11:06;;;;;;;14.57;7.18;;;;;;;4.63;84.00;99986.38;8218540;28;20499;-79
2021/12/11 14:15:07;;;;;;;15.73;8.30;;;;;;;4.47;85.09;99987.59;8222849;28;20043;-79
2021/12/11 14:19:08;;;;;;;15.50;7.93;;;;;;;4.31;86.58;99991.50;8208465;28;20090;-78
2021/12/11 14:23:12;;;;;;;15.00;6.82;;;;;;;4.27;88.34;100004.72;8217310;28;20043;-79
2021/12/11 14:27:16;;;;;;;18.02;7.60;;;;;;;4.21;90.26;100010.16;8231710;28;20043;-79
2021/12/11 14:31:19;;;;;;;18.65;8.82;;;;;;;4.10;92.22;100014.31;8221724;28;20085;-78
2021/12/11 14:35:27;;;;;;;22.25;8.57;;;;;;;4.08;92.40;100030.06;8206124;28;20046;-78
2021/12/11 14:39:30;;;;;;;17.88;9.00;;;;;;;4.01;92.57;100034.59;8225047;28;20034;-79
2021/12/11 14:43:38;;;;;;;19.35;8.93;;;;;;;3.99;92.88;100048.47;8194773;28;20058;-80
2021/12/11 14:47:40;;;;;;;22.02;8.55;;;;;;;3.94;95.23;100052.81;8206289;28;20051;-80
2021/12/11 14:51:41;;;;;;;20.02;9.20;;;;;;;3.88;95.90;100052.56;8223756;28;20046;-80
2021/12/11 14:55:47;;;;;;;20.52;8.88;;;;;;;3.83;97.09;100070.56;8230519;28;20540;-78
2021/12/11 14:59:52;;;;;;;22.67;8.35;;;;;;;3.78;96.99;100081.25;8222164;28;20121;-80
2021/12/11 15:03:57;;;;;;;18.42;9.35;;;;;;;3.77;97.24;100087.72;8223041;28;20050;-80
2021/12/11 15:07:59;;;;;;;16.75;8.70;;;;;;;3.74;98.18;100094.41;8225992;28;20042;-78
2021/12/11 15:11:59;;;;;;;16.52;8.18;;;;;;;3.70;99.11;100106.75;8212435;28;20050;-77
2021/12/11 15:16:01;;;;;;;15.60;6.30;;;;;;;3.61;100.00;100100.63;8220250;28;20091;-78
2021/12/11 15:20:12;;;;;;;18.15;7.88;;;;;;;3.59;100.00;100104.56;8232268;28;20058;-79
2021/12/11 15:24:13;;;;;;;19.92;7.95;;;;;;;3.60;100.00;100101.66;8219369;28;20065;-79
2021/12/11 15:28:16;;;;;;;18.13;8.40;;;;;;;3.62;100.00;100107.75;8224120;28;20073;-79
2021/12/11 15:32:19;;;;;;;18.80;8.70;;;;;;;3.70;100.00;100108.66;8218743;28;20046;-79
2021/12/11 15:36:22;;;;;;;21.30;9.00;;;;;;;3.72;99.96;100117.44;8216451;28;20130;-80
2021/12/11 15:40:27;;;;;;;18.65;8.55;;;;;;;3.69;99.86;100126.91;8211394;28;20142;-78
2021/12/11 15:44:33;;;;;;;20.13;8.85;;;;;;;3.67;98.79;100133.56;8217419;28;20094;-78
2021/12/11 15:48:35;;;;;;;19.10;8.98;;;;;;;3.66;99.23;100130.00;8225358;28;20392;-77
2021/12/11 15:52:36;;;;;;;21.87;9.30;;;;;;;3.67;98.33;100131.69;8223249;28;20046;-78
2021/12/11 15:56:39;;;;;;;19.67;9.25;;;;;;;3.71;98.78;100134.84;8226701;28;20595;-80
2021/12/11 16:00:41;;;;;;;;;;;;;;;3.77;97.70;100143.06;8213076;28;20050;-80
2021/12/11 16:04:42;;;;;;;17.60;9.13;;;;;;;3.76;97.95;100146.03;8208236;28;20260;-81
2021/12/11 16:08:43;;;;;;;22.58;9.82;;;;;;;3.75;98.26;100156.09;8205346;28;20294;-80
2021/12/11 16:12:45;;;;;;;19.52;10.00;;;;;;;3.75;98.34;100156.09;8214018;28;20404;-80
2021/12/11 16:16:45;;;;;;;21.10;9.57;;;;;;;3.75;97.56;100158.81;8198314;28;20096;-80
2021/12/11 16:20:53;;;;;;;24.48;10.20;;;;;;;3.76;98.66;100171.38;8212135;28;20051;-81
2021/12/11 16:25:04;;;;;;;17.63;9.05;;;;;;;3.75;97.79;100175.16;8200401;28;20047;-80
2021/12/11 16:29:06;;;;;;;25.10;10.05;;;;;;;3.77;97.79;100177.69;8211961;28;20051;-80
2021/12/11 16:33:07;;;;;;;22.35;9.82;;;;;;;3.68;98.08;100176.13;8207483;28;20070;-79
2021/12/11 16:37:16;;;;;;;21.60;11.30;;;;;;;3.70;98.09;100184.97;8196840;28;20042;-80
2021/12/11 16:41:20;;;;;;;;;;;;;;;3.64;99.06;100197.50;8211445;28;20045;-80
2021/12/11 16:45:22;;;;;;;21.13;10.32;;;;;;;3.71;98.12;100201.09;8209375;28;20347;-80
2021/12/11 16:49:27;;;;;;;23.02;10.82;;;;;;;3.71;98.07;100209.28;8204355;28;20119;-80
2021/12/11 16:53:32;;;;;;;21.70;11.05;;;;;;;3.73;98.12;100214.56;8192425;28;20046;-80
2021/12/11 16:57:33;;;;;;;22.10;11.15;;;;;;;3.74;98.22;100217.06;8219431;28;20042;-81
2021/12/11 17:01:37;;;;;;;24.50;11.93;;;;;;;3.75;98.72;100226.94;8229243;28;20567;-80
2021/12/11 17:05:38;;;;;;;22.85;11.35;;;;;;;3.79;97.82;100221.94;8223745;28;20043;-80
2021/12/11 17:09:42;;;;;;;23.75;11.10;;;;;;;3.80;97.45;100224.47;8220156;28;20117;-79
2021/12/11 17:13:44;;;;;;;22.50;10.07;;;;;;;3.79;98.11;100232.84;8210677;28;20086;-80
2021/12/11 17:17:44;;;;;;;23.25;11.35;;;;;;;3.80;97.57;100234.53;8211904;28;20058;-80
2021/12/11 17:21:45;;;;;;;23.70;11.40;;;;;;;3.85;97.07;100232.06;8219301;28;20046;-80
2021/12/11 17:25:48;;;;;;;24.25;12.15;;;;;;;3.84;97.31;100241.28;8224438;28;20492;-79
2021/12/11 17:29:51;;;;;;;23.33;10.85;;;;;;;3.86;97.33;100247.38;8212574;28;20071;-80
2021/12/11 17:33:53;;;;;;;21.70;10.98;;;;;;;3.85;97.78;100242.97;8210844;28;20451;-78
2021/12/11 17:37:54;;;;;;;23.25;11.70;;;;;;;3.85;97.37;100254.72;8216023;28;20039;-80
2021/12/11 17:41:59;;;;;;;19.95;9.75;;;;;;;3.93;97.44;100256.47;8218040;28;20051;-81
2021/12/11 17:46:00;;;;;;;22.80;10.38;;;;;;;3.90;97.19;100256.88;8220578;28;20039;-81
2021/12/11 17:50:02;;;;;;;24.55;11.35;;;;;;;3.86;97.57;100269.19;8224828;28;20062;-81
2021/12/11 17:54:05;;;;;;;26.80;11.87;;;;;;;3.82;98.58;100268.75;8226607;28;20035;-80
2021/12/11 17:58:06;;;;;;;23.17;10.38;;;;;;;3.83;98.41;100277.75;8213431;28;20077;-81
2021/12/11 18:02:12;;;;;;;22.27;11.57;;;;;;;3.80;98.52;100276.25;8231108;28;20118;-80
2021/12/11 18:06:17;;;;;;;25.80;12.02;;;;;;;3.78;98.32;100280.25;8215180;28;20043;-80
2021/12/11 18:10:29;;;;;;;20.52;10.25;;;;;;;3.83;98.46;100286.78;8230646;28;20045;-79
2021/12/11 18:14:42;;;;;;;18.60;8.82;;;;;;;3.74;97.82;100301.56;8210860;28;20042;-79
2021/12/11 18:18:51;;;;;;;24.17;9.68;;;;;;;3.76;98.00;100312.28;8217719;28;20062;-79
2021/12/11 18:22:52;;;;;;;21.77;10.80;;;;;;;3.84;97.71;100317.63;8229751;28;20047;-82
2021/12/11 18:26:55;;;;;;;18.13;10.75;;;;;;;3.80;97.85;100316.31;8227380;28;20070;-80
2021/12/11 18:30:59;;;;;;;17.48;9.25;;;;;;;3.79;96.92;100325.53;8227844;28;20053;-80
2021/12/11 18:35:06;;;;;;;21.65;9.52;;;;;;;3.84;97.79;100339.44;8226231;28;20046;-79
2021/12/11 18:39:13;;;;;;;23.25;9.68;;;;;;;3.87;96.89;100336.31;8208193;28;20043;-78
2021/12/11 18:43:19;;;;;;;20.92;9.80;;;;;;;3.83;96.77;100337.72;8212311;28;20043;-80
2021/12/11 18:47:21;;;;;;;19.15;9.60;;;;;;;3.87;96.72;100345.34;8195550;28;20039;-80
2021/12/11 18:51:29;;;;;;;19.08;10.95;;;;;;;3.91;96.74;100345.78;8222605;28;20504;-80
2021/12/11 18:55:37;;;;;;;18.55;9.18;;;;;;;3.93;97.48;100351.91;8213559;28;20078;-79
2021/12/11 18:59:39;;;;;;;20.08;9.35;;;;;;;3.95;96.87;100352.53;8208354;28;20147;-79
2021/12/11 19:03:45;;;;;;;21.23;9.25;;;;;;;3.86;96.57;100359.16;8215777;28;20780;-78
2021/12/11 19:07:45;;;;;;;19.45;9.48;;;;;;;3.80;97.11;100366.22;8220249;28;20046;-78
2021/12/11 19:11:53;;;;;;;19.95;9.02;;;;;;;3.75;97.03;100370.56;8227368;28;20046;-79